Time;durP1;ratioP1;P1;durP2;ratioP2;P2;SDS_P1;SDS_P2;PMS_P1;PMS_P2;Temp;Humidity;BMP_temperature;BMP_pressure;BME280_temperature;BME280_humidity;BME280_pressure;Samples;Min_cycle;Max_cycle;Signal;HPM_P1;HPM_P2
2023/12/28 00:00:08;;;;;;;6.47;3.67;;;8.50;79.80;;;;;;5024985;28;20488;-75
2023/12/28 00:02:34;;;;;;;5.77;3.30;;;8.50;79.90;;;;;;5026115;28;20052;-75
2023/12/28 00:04:59;;;;;;;8.97;4.10;;;8.50;79.90;;;;;;5013919;28;20591;-75
2023/12/28 00:07:25;;;;;;;6.90;4.07;;;8.60;79.70;;;;;;5025449;28;20381;-75
2023/12/28 00:09:51;;;;;;;7.57;3.77;;;8.60;79.70;;;;;;5026554;28;20049;-75
2023/12/28 00:12:16;;;;;;;7.27;3.57;;;8.60;79.70;;;;;;5023485;28;20045;-75
2023/12/28 00:14:42;;;;;;;7.43;3.67;;;8.60;79.70;;;;;;5025807;28;20064;-75
2023/12/28 00:17:08;;;;;;;7.83;3.73;;;8.60;79.70;;;;;;5025870;28;20499;-75
2023/12/28 00:19:33;;;;;;;7.03;3.63;;;8.60;79.70;;;;;;5026551;28;20049;-76
2023/12/28 00:21:59;;;;;;;7.57;4.00;;;8.60;79.70;;;;;;5026468;28;20042;-75
2023/12/28 00:24:24;;;;;;;8.00;3.47;;;8.60;79.80;;;;;;5024330;28;20527;-75
2023/12/28 00:26:50;;;;;;;6.80;3.20;;;8.60;79.80;;;;;;5025597;28;20050;-75
2023/12/28 00:29:16;;;;;;;9.20;3.60;;;8.60;79.80;;;;;;5025163;28;20042;-75
2023/12/28 00:31:41;;;;;;;8.23;4.13;;;8.60;80.00;;;;;;5025593;28;20141;-75
2023/12/28 00:34:07;;;;;;;8.73;3.40;;;8.60;80.00;;;;;;5038913;28;20069;-74
2023/12/28 00:36:33;;;;;;;8.47;3.70;;;8.60;80.10;;;;;;5025222;28;20442;-75
2023/12/28 00:38:58;;;;;;;7.27;3.60;;;8.60;80.20;;;;;;5025479;28;20072;-75
2023/12/28 00:41:24;;;;;;;8.60;3.70;;;8.60;80.30;;;;;;5024351;28;20052;-75
2023/12/28 00:43:50;;;;;;;10.13;3.73;;;8.60;80.30;;;;;;5024886;28;20041;-75
2023/12/28 00:46:15;;;;;;;9.40;3.80;;;8.60;80.40;;;;;;5025146;28;20041;-75
2023/12/28 00:48:41;;;;;;;10.10;3.80;;;8.60;80.40;;;;;;5025828;28;20060;-75
2023/12/28 00:51:07;;;;;;;7.00;3.30;;;8.60;80.40;;;;;;5024956;28;20049;-75
2023/12/28 00:53:33;;;;;;;8.40;3.73;;;8.70;80.40;;;;;;5025843;28;20466;-75
2023/12/28 00:55:58;;;;;;;12.77;3.63;;;8.80;80.50;;;;;;5025674;28;20124;-75
2023/12/28 00:58:24;;;;;;;11.57;3.97;;;8.80;80.50;;;;;;5025148;28;20123;-75
2023/12/28 01:00:53;;;;;;;15.57;3.70;;;8.80;80.40;;;;;;5025676;28;20408;-75
2023/12/28 01:03:19;;;;;;;12.30;3.47;;;8.90;80.50;;;;;;5021836;28;20157;-75
2023/12/28 01:05:47;;;;;;;12.50;3.97;;;8.90;80.40;;;;;;5021903;28;20411;-75
2023/12/28 01:08:13;;;;;;;13.87;4.10;;;9.00;80.30;;;;;;5017058;28;20054;-75
2023/12/28 01:10:38;;;;;;;16.53;3.80;;;9.00;80.30;;;;;;5018607;28;20099;-75
2023/12/28 01:13:04;;;;;;;13.10;3.83;;;9.00;80.20;;;;;;5020476;28;20398;-75
2023/12/28 01:15:30;;;;;;;12.93;3.87;;;9.00;80.20;;;;;;5006251;28;20125;-75
2023/12/28 01:17:56;;;;;;;19.67;4.37;;;8.90;80.30;;;;;;5021905;28;20132;-75
2023/12/28 01:20:22;;;;;;;17.20;4.00;;;8.90;80.20;;;;;;5024078;28;20100;-75
2023/12/28 01:22:49;;;;;;;17.77;4.13;;;8.90;80.40;;;;;;5025619;28;20084;-75
2023/12/28 01:25:15;;;;;;;17.50;4.70;;;8.90;80.30;;;;;;5023454;28;20487;-75
2023/12/28 01:27:41;;;;;;;19.57;4.07;;;8.90;80.30;;;;;;5017598;28;20046;-75
2023/12/28 01:30:08;;;;;;;21.33;5.03;;;8.90;80.20;;;;;;5021188;28;20519;-74
2023/12/28 01:32:33;;;;;;;17.93;4.43;;;8.90;80.20;;;;;;5025049;28;20099;-75
2023/12/28 01:34:59;;;;;;;20.17;4.40;;;8.90;80.30;;;;;;5010137;28;20488;-75
2023/12/28 01:37:24;;;;;;;20.30;4.57;;;8.80;80.30;;;;;;5026833;28;20070;-75
2023/12/28 01:39:50;;;;;;;18.80;4.20;;;8.80;80.30;;;;;;5029075;28;20045;-75
2023/12/28 01:42:16;;;;;;;16.73;4.43;;;8.80;80.50;;;;;;5024630;28;20037;-75
2023/12/28 01:44:42;;;;;;;26.70;4.57;;;8.80;80.60;;;;;;5026051;28;20132;-75
2023/12/28 01:47:07;;;;;;;19.53;4.70;;;8.80;80.70;;;;;;5026916;28;20424;-75
2023/12/28 01:49:34;;;;;;;19.73;4.30;;;8.70;80.70;;;;;;5028310;28;20305;-74
2023/12/28 01:52:02;;;;;;;19.63;4.40;;;8.70;80.70;;;;;;5027968;28;20061;-75
2023/12/28 01:54:29;;;;;;;23.53;4.77;;;8.80;80.80;;;;;;5026832;28;20049;-75
2023/12/28 01:56:54;;;;;;;17.43;4.03;;;8.80;81.00;;;;;;5027163;28;20386;-75
2023/12/28 01:59:20;;;;;;;13.27;4.17;;;8.70;81.00;;;;;;5027978;28;20056;-75
2023/12/28 02:01:47;;;;;;;15.60;4.60;;;8.70;81.10;;;;;;5027858;28;21065;-75
2023/12/28 02:04:13;;;;;;;23.43;4.90;;;8.70;81.20;;;;;;5022276;28;20489;-75
2023/12/28 02:06:39;;;;;;;22.00;5.20;;;8.70;81.20;;;;;;5010093;28;20412;-75
2023/12/28 02:09:04;;;;;;;20.73;4.60;;;8.70;81.20;;;;;;5027741;28;20049;-75
2023/12/28 02:11:30;;;;;;;21.23;4.70;;;8.70;81.20;;;;;;5019623;28;20072;-75
2023/12/28 02:13:56;;;;;;;21.27;4.53;;;8.70;81.20;;;;;;5027623;28;20115;-75
2023/12/28 02:16:40;;;;;;;20.87;5.00;;;8.70;81.20;;;;;;5027767;28;20464;-75
2023/12/28 02:19:22;;;;;;;23.83;4.27;;;8.70;81.20;;;;;;5026554;28;20077;-74
2023/12/28 02:21:49;;;;;;;18.60;5.03;;;8.60;81.30;;;;;;5026283;28;20140;-75
2023/12/28 02:24:14;;;;;;;21.03;4.50;;;8.60;81.30;;;;;;5020679;28;20038;-75
2023/12/28 02:26:40;;;;;;;20.70;5.70;;;8.60;81.20;;;;;;5024909;28;20325;-75
2023/12/28 02:29:06;;;;;;;20.27;4.60;;;8.60;81.20;;;;;;5017634;28;20060;-74
2023/12/28 02:31:39;;;;;;;18.73;4.33;;;8.60;81.30;;;;;;5027604;28;20136;-75
2023/12/28 02:34:12;;;;;;;17.30;4.50;;;8.50;81.30;;;;;;5028127;28;20041;-73
2023/12/28 02:36:41;;;;;;;16.40;3.97;;;8.50;81.40;;;;;;5027583;28;20058;-75
2023/12/28 02:39:07;;;;;;;23.97;4.30;;;8.40;81.50;;;;;;5026160;28;20047;-74
2023/12/28 02:41:34;;;;;;;18.10;4.20;;;8.40;81.70;;;;;;5011561;28;20248;-75
2023/12/28 02:43:59;;;;;;;16.83;3.83;;;8.40;81.80;;;;;;5022122;28;20065;-75
2023/12/28 02:46:25;;;;;;;15.33;4.77;;;8.40;81.80;;;;;;5027214;28;20053;-75
2023/12/28 02:48:52;;;;;;;14.43;4.20;;;8.50;81.80;;;;;;5028508;28;20139;-75
2023/12/28 02:51:18;;;;;;;15.63;4.50;;;8.50;81.80;;;;;;5026935;28;20045;-75
2023/12/28 02:53:44;;;;;;;18.37;4.53;;;8.40;81.80;;;;;;5027462;28;20630;-75
2023/12/28 02:56:09;;;;;;;15.80;4.23;;;8.40;81.90;;;;;;5026630;28;20071;-75
2023/12/28 02:58:35;;;;;;;15.00;4.20;;;8.50;81.90;;;;;;5027158;28;20061;-75
2023/12/28 03:01:00;;;;;;;11.77;4.23;;;8.50;81.90;;;;;;5027491;28;20057;-75
2023/12/28 03:03:26;;;;;;;15.70;4.30;;;8.50;81.90;;;;;;5027101;28;20046;-75
2023/12/28 03:05:52;;;;;;;16.87;4.40;;;8.50;82.00;;;;;;5027581;28;20041;-75
2023/12/28 03:08:17;;;;;;;18.17;4.37;;;8.60;81.90;;;;;;5026565;28;20068;-75
2023/12/28 03:10:43;;;;;;;15.23;4.43;;;8.60;81.90;;;;;;5020573;28;20042;-75
2023/12/28 03:13:09;;;;;;;12.33;3.73;;;8.60;81.80;;;;;;5027864;28;20223;-75
2023/12/28 03:15:34;;;;;;;20.33;4.53;;;8.60;81.70;;;;;;5026911;28;20132;-75
2023/12/28 03:18:00;;;;;;;17.67;3.97;;;8.60;81.60;;;;;;5027851;28;20096;-75
2023/12/28 03:20:25;;;;;;;16.23;4.03;;;8.80;81.60;;;;;;5026395;28;20159;-75
2023/12/28 03:22:51;;;;;;;13.90;3.70;;;8.80;81.50;;;;;;5027019;28;20072;-75
2023/12/28 03:25:17;;;;;;;14.17;3.80;;;8.90;81.40;;;;;;5026181;28;20049;-75
2023/12/28 03:27:42;;;;;;;17.10;3.80;;;8.90;81.20;;;;;;5015298;28;20050;-75
2023/12/28 03:30:09;;;;;;;16.80;4.20;;;9.00;81.10;;;;;;5026164;28;20053;-74
2023/12/28 03:32:34;;;;;;;18.23;3.77;;;9.00;80.90;;;;;;5022402;28;20097;-74
2023/12/28 03:35:00;;;;;;;16.57;3.70;;;9.00;80.80;;;;;;5005067;28;20616;-75
2023/12/28 03:37:25;;;;;;;16.37;3.90;;;9.10;80.70;;;;;;5037566;28;20409;-75
2023/12/28 03:39:51;;;;;;;16.03;3.80;;;9.10;80.60;;;;;;5026928;28;20410;-75
2023/12/28 03:42:17;;;;;;;16.57;3.63;;;9.20;80.40;;;;;;5021841;28;20549;-75
2023/12/28 03:44:42;;;;;;;15.90;3.60;;;9.20;80.40;;;;;;5025054;28;20050;-75
2023/12/28 03:47:08;;;;;;;15.77;3.53;;;9.20;80.10;;;;;;5025715;28;20071;-75
2023/12/28 03:49:33;;;;;;;14.33;3.73;;;9.20;80.20;;;;;;5026341;28;20053;-75
2023/12/28 03:51:59;;;;;;;16.00;3.80;;;9.10;80.00;;;;;;5026340;28;20492;-75
2023/12/28 03:54:25;;;;;;;13.67;3.03;;;9.20;80.00;;;;;;5026453;28;20053;-75
2023/12/28 03:56:50;;;;;;;13.10;3.30;;;9.20;80.00;;;;;;5026296;28;20049;-75
2023/12/28 03:59:16;;;;;;;17.27;3.77;;;9.20;79.80;;;;;;5022032;28;20058;-75
2023/12/28 04:01:42;;;;;;;15.77;3.67;;;9.20;79.80;;;;;;5006914;28;20058;-75
2023/12/28 04:04:08;;;;;;;11.27;3.33;;;9.20;79.80;;;;;;5012837;28;20053;-74
2023/12/28 04:06:34;;;;;;;15.47;3.73;;;9.20;79.60;;;;;;5025706;28;20053;-75
2023/12/28 04:09:00;;;;;;;19.87;3.93;;;9.20;79.50;;;;;;5027239;28;20056;-75
2023/12/28 04:11:25;;;;;;;19.20;4.00;;;9.30;79.30;;;;;;5025636;28;20064;-75
2023/12/28 04:13:51;;;;;;;17.27;3.73;;;9.40;79.10;;;;;;5026295;28;20049;-75
2023/12/28 04:16:17;;;;;;;15.07;3.60;;;9.40;79.00;;;;;;5025954;28;20087;-75
2023/12/28 04:18:43;;;;;;;18.17;3.50;;;9.40;78.80;;;;;;5026895;28;20061;-75
2023/12/28 04:21:12;;;;;;;15.27;3.63;;;9.40;78.70;;;;;;5025268;28;20046;-75
2023/12/28 04:23:40;;;;;;;17.00;3.80;;;9.40;78.90;;;;;;5025523;28;20566;-75
2023/12/28 04:26:06;;;;;;;15.17;4.13;;;9.40;78.70;;;;;;5022889;28;20154;-74
2023/12/28 04:28:34;;;;;;;12.73;3.53;;;9.40;78.70;;;;;;5026383;28;20052;-75
2023/12/28 04:31:03;;;;;;;15.93;3.60;;;9.40;78.70;;;;;;5007007;28;20046;-75
2023/12/28 04:33:29;;;;;;;17.87;4.27;;;9.40;78.40;;;;;;5018350;28;20184;-75
2023/12/28 04:35:54;;;;;;;18.30;3.90;;;9.50;78.40;;;;;;5025799;28;20124;-75
2023/12/28 04:38:20;;;;;;;17.07;3.80;;;9.50;78.40;;;;;;5025707;28;20053;-75
2023/12/28 04:40:46;;;;;;;15.57;3.77;;;9.50;78.40;;;;;;5026397;28;20112;-75
2023/12/28 04:43:11;;;;;;;15.67;3.90;;;9.50;78.20;;;;;;5019189;28;20048;-75
2023/12/28 04:45:37;;;;;;;16.80;4.13;;;9.50;78.30;;;;;;5026145;28;20065;-75
2023/12/28 04:48:04;;;;;;;19.27;3.90;;;9.50;78.30;;;;;;5026312;28;20052;-75
2023/12/28 04:50:30;;;;;;;16.97;3.87;;;9.50;78.20;;;;;;5006751;28;20080;-74
2023/12/28 04:52:55;;;;;;;18.83;3.93;;;9.50;77.90;;;;;;5025897;28;20455;-75
2023/12/28 04:55:21;;;;;;;15.07;3.57;;;9.50;78.00;;;;;;5025317;28;20061;-74
2023/12/28 04:57:47;;;;;;;18.13;4.07;;;9.50;78.00;;;;;;5026465;28;20064;-75
2023/12/28 05:00:12;;;;;;;19.43;4.40;;;9.50;77.80;;;;;;5013465;28;20497;-74
2023/12/28 05:02:38;;;;;;;15.37;3.53;;;9.50;77.80;;;;;;5034259;28;20500;-75
2023/12/28 05:05:04;;;;;;;20.53;4.10;;;9.60;77.70;;;;;;5028929;28;20041;-73
2023/12/28 05:07:30;;;;;;;20.00;4.00;;;9.50;77.50;;;;;;5029999;28;20115;-74
2023/12/28 05:09:55;;;;;;;19.53;3.80;;;9.60;77.10;;;;;;5029976;28;20045;-75
2023/12/28 05:12:21;;;;;;;20.33;3.60;;;9.60;77.50;;;;;;5029543;28;20056;-75
2023/12/28 05:14:46;;;;;;;16.57;3.73;;;9.60;77.20;;;;;;5029403;28;20104;-75
2023/12/28 05:17:12;;;;;;;21.87;4.40;;;9.60;77.30;;;;;;5025484;28;20595;-75
2023/12/28 05:19:38;;;;;;;21.90;4.30;;;9.50;77.30;;;;;;5010257;28;21662;-74
2023/12/28 05:22:06;;;;;;;18.43;4.67;;;9.60;77.30;;;;;;5023712;28;20045;-75
2023/12/28 05:24:32;;;;;;;20.40;4.30;;;9.50;77.50;;;;;;5026055;28;20475;-74
2023/12/28 05:26:58;;;;;;;18.53;4.27;;;9.60;77.30;;;;;;5026513;28;20416;-75
2023/12/28 05:29:23;;;;;;;16.40;3.50;;;9.60;77.00;;;;;;5025802;28;20053;-74
2023/12/28 05:31:49;;;;;;;18.77;4.40;;;9.70;76.90;;;;;;5026147;28;20045;-75
2023/12/28 05:34:15;;;;;;;25.33;4.40;;;9.70;76.90;;;;;;5025560;28;20584;-75
2023/12/28 05:36:41;;;;;;;15.90;3.90;;;9.70;76.90;;;;;;5025757;28;20076;-75
2023/12/28 05:39:09;;;;;;;22.07;4.77;;;9.70;76.80;;;;;;5025539;28;20104;-71
2023/12/28 05:41:35;;;;;;;21.37;4.33;;;9.70;76.70;;;;;;5025031;28;20050;-75
2023/12/28 05:44:01;;;;;;;16.40;3.53;;;9.70;76.70;;;;;;5026217;28;20403;-75
2023/12/28 05:46:26;;;;;;;21.83;4.63;;;9.70;76.70;;;;;;5025351;28;20172;-75
2023/12/28 05:48:52;;;;;;;25.67;5.17;;;9.80;76.60;;;;;;5025844;28;20053;-75
2023/12/28 05:51:18;;;;;;;18.43;4.20;;;9.70;76.70;;;;;;5025899;28;20054;-75
2023/12/28 05:53:44;;;;;;;22.70;4.90;;;9.70;76.70;;;;;;5026126;28;20049;-75
2023/12/28 05:56:10;;;;;;;22.17;4.87;;;9.60;76.80;;;;;;5025147;28;20405;-74
2023/12/28 05:58:36;;;;;;;19.30;3.60;;;9.60;76.90;;;;;;5026358;28;20089;-75
2023/12/28 06:01:04;;;;;;;17.53;4.07;;;9.60;76.80;;;;;;5023936;28;20132;-75
2023/12/28 06:03:31;;;;;;;20.13;3.83;;;9.60;76.90;;;;;;5022631;28;20042;-74
2023/12/28 06:05:56;;;;;;;20.17;4.50;;;9.60;76.90;;;;;;5026589;28;20041;-75
2023/12/28 06:08:22;;;;;;;20.03;4.30;;;9.50;77.00;;;;;;5027240;28;20053;-74
2023/12/28 06:10:48;;;;;;;19.90;4.30;;;9.50;77.10;;;;;;5027978;28;20152;-75
2023/12/28 06:13:14;;;;;;;22.03;4.60;;;9.50;77.30;;;;;;5020395;28;20046;-74
2023/12/28 06:15:40;;;;;;;17.83;4.00;;;9.50;77.30;;;;;;5028385;28;20099;-75
2023/12/28 06:18:06;;;;;;;22.60;4.87;;;9.60;77.20;;;;;;5027506;28;20128;-75
2023/12/28 06:20:32;;;;;;;21.73;4.10;;;9.60;77.20;;;;;;5024993;28;20568;-75
2023/12/28 06:22:57;;;;;;;25.50;4.07;;;9.60;77.10;;;;;;5008625;28;20053;-75
2023/12/28 06:25:23;;;;;;;21.77;5.00;;;9.60;77.10;;;;;;5017665;28;20057;-74
2023/12/28 06:27:49;;;;;;;19.47;4.40;;;9.70;77.00;;;;;;5028616;28;20052;-75
2023/12/28 06:30:15;;;;;;;25.03;4.60;;;9.70;76.80;;;;;;5021812;28;20124;-75
2023/12/28 06:32:41;;;;;;;19.70;4.23;;;9.70;76.90;;;;;;5025893;28;20064;-75
2023/12/28 06:35:06;;;;;;;23.83;4.77;;;9.70;77.10;;;;;;5026577;28;20590;-74
2023/12/28 06:37:32;;;;;;;24.80;4.30;;;9.70;76.90;;;;;;5027788;28;20296;-75
2023/12/28 06:39:58;;;;;;;22.57;5.33;;;9.70;76.70;;;;;;5028638;28;20049;-75
2023/12/28 06:42:24;;;;;;;21.67;4.50;;;9.70;76.50;;;;;;5023668;28;20136;-74
2023/12/28 06:44:49;;;;;;;21.47;4.27;;;9.80;76.60;;;;;;5027628;28;20046;-75
2023/12/28 06:47:15;;;;;;;21.57;4.57;;;9.80;76.50;;;;;;5027159;28;20395;-75
2023/12/28 06:49:40;;;;;;;18.67;4.30;;;9.70;76.70;;;;;;5028526;28;20041;-74
2023/12/28 06:52:06;;;;;;;27.87;5.43;;;9.70;76.60;;;;;;5027384;28;20053;-74
2023/12/28 06:54:32;;;;;;;23.47;4.80;;;9.70;76.50;;;;;;5027557;28;20053;-74
2023/12/28 06:56:58;;;;;;;26.97;5.10;;;9.80;76.20;;;;;;5026289;28;20523;-75
2023/12/28 06:59:23;;;;;;;22.37;5.23;;;9.90;76.10;;;;;;5026590;28;20129;-74
2023/12/28 07:01:49;;;;;;;25.77;5.43;;;9.90;76.10;;;;;;5026808;28;20037;-74
2023/12/28 07:04:15;;;;;;;23.03;4.57;;;10.00;75.90;;;;;;5018941;28;20050;-74
2023/12/28 07:06:41;;;;;;;27.53;5.63;;;10.00;76.00;;;;;;5007033;28;20054;-75
2023/12/28 07:09:06;;;;;;;31.53;6.00;;;10.00;75.80;;;;;;5010271;28;20070;-74
2023/12/28 07:11:32;;;;;;;27.37;6.17;;;10.00;75.50;;;;;;5026067;28;20529;-74
2023/12/28 07:13:58;;;;;;;29.33;5.20;;;10.00;75.30;;;;;;5027730;28;20060;-75
2023/12/28 07:16:24;;;;;;;32.27;5.70;;;10.10;75.50;;;;;;5026349;28;20061;-75
2023/12/28 07:18:49;;;;;;;29.33;6.10;;;10.10;75.40;;;;;;5027435;28;20081;-75
2023/12/28 07:21:15;;;;;;;31.00;5.80;;;10.10;75.40;;;;;;5025937;28;20095;-74
2023/12/28 07:23:41;;;;;;;35.30;6.43;;;10.10;75.40;;;;;;5024154;28;20060;-75
2023/12/28 07:26:06;;;;;;;35.03;6.70;;;10.10;75.40;;;;;;5024425;28;20137;-75
2023/12/28 07:28:32;;;;;;;29.13;5.70;;;10.00;75.30;;;;;;5024367;28;20124;-75
2023/12/28 07:30:58;;;;;;;25.70;5.93;;;10.00;75.50;;;;;;5024460;28;20053;-74
2023/12/28 07:33:23;;;;;;;30.40;6.50;;;10.10;75.70;;;;;;5025141;28;20056;-75
2023/12/28 07:35:49;;;;;;;29.83;6.47;;;10.00;75.60;;;;;;5025556;28;20080;-75
2023/12/28 07:38:15;;;;;;;38.33;6.30;;;10.00;75.50;;;;;;5026074;28;20049;-74
2023/12/28 07:40:41;;;;;;;27.90;6.17;;;10.00;75.70;;;;;;5036867;28;20040;-74
2023/12/28 07:43:07;;;;;;;37.53;7.13;;;10.00;75.70;;;;;;5022822;28;20056;-76
2023/12/28 07:45:32;;;;;;;32.67;7.33;;;9.90;75.80;;;;;;5025466;28;20085;-74
2023/12/28 07:48:01;;;;;;;29.27;6.70;;;9.80;76.00;;;;;;5026730;28;20044;-75
2023/12/28 07:50:27;;;;;;;33.53;6.40;;;9.80;76.00;;;;;;5024949;28;20049;-75
2023/12/28 07:52:53;;;;;;;39.70;7.13;;;9.90;76.00;;;;;;5026611;28;20048;-74
2023/12/28 07:55:19;;;;;;;33.37;7.20;;;9.90;75.90;;;;;;5025916;28;20045;-73
2023/12/28 07:57:45;;;;;;;41.53;7.40;;;9.90;75.90;;;;;;5026739;28;20075;-74
2023/12/28 08:00:11;;;;;;;36.23;7.53;;;9.90;76.00;;;;;;5025541;28;20049;-73
2023/12/28 08:02:37;;;;;;;42.10;7.43;;;10.00;75.90;;;;;;5026139;28;20051;-74
2023/12/28 08:05:04;;;;;;;35.07;7.43;;;9.90;76.10;;;;;;5024991;28;20412;-74
2023/12/28 08:07:30;;;;;;;36.73;7.80;;;10.00;76.20;;;;;;5006340;28;20054;-73
2023/12/28 08:09:55;;;;;;;38.53;7.80;;;9.90;76.10;;;;;;5014207;28;20049;-74
2023/12/28 08:12:21;;;;;;;35.83;8.10;;;10.00;76.00;;;;;;5025582;28;20452;-74
2023/12/28 08:14:47;;;;;;;34.53;7.40;;;10.00;76.10;;;;;;5026190;28;20061;-74
2023/12/28 08:17:13;;;;;;;36.07;7.20;;;10.00;76.20;;;;;;5025556;28;20120;-74
2023/12/28 08:19:39;;;;;;;40.27;8.00;;;10.00;76.00;;;;;;5020656;28;20473;-74
2023/12/28 08:22:04;;;;;;;44.70;8.27;;;10.00;76.10;;;;;;5005839;28;20413;-74
2023/12/28 08:24:30;;;;;;;40.13;8.53;;;10.00;76.00;;;;;;5006599;28;20046;-74
2023/12/28 08:26:59;;;;;;;34.63;7.50;;;10.00;76.10;;;;;;5006086;28;20054;-74
2023/12/28 08:29:26;;;;;;;43.70;8.47;;;10.10;76.10;;;;;;5010514;28;20045;-74
2023/12/28 08:31:52;;;;;;;39.87;8.40;;;10.00;76.20;;;;;;5026578;28;20077;-74
2023/12/28 08:34:18;;;;;;;38.33;8.17;;;10.00;76.00;;;;;;5007445;28;20537;-74
2023/12/28 08:36:43;;;;;;;42.33;9.07;;;10.00;76.10;;;;;;5011639;28;20424;-74
2023/12/28 08:39:09;;;;;;;34.67;8.07;;;10.00;76.10;;;;;;5030822;28;20041;-74
2023/12/28 08:41:35;;;;;;;45.93;9.73;;;10.00;76.10;;;;;;5028298;28;20050;-74
2023/12/28 08:44:00;;;;;;;44.23;8.20;;;10.00;76.20;;;;;;5029636;28;20104;-75
2023/12/28 08:46:26;;;;;;;39.50;8.93;;;10.10;76.20;;;;;;5027159;28;20057;-74
2023/12/28 08:48:52;;;;;;;48.30;8.87;;;10.10;76.20;;;;;;5031546;28;20051;-74
2023/12/28 08:51:17;;;;;;;42.20;9.13;;;10.10;76.00;;;;;;5031226;28;20493;-74
2023/12/28 08:53:43;;;;;;;39.90;8.63;;;10.10;75.90;;;;;;5031341;28;20057;-75
2023/12/28 08:56:20;;;;;;;52.30;9.10;;;10.10;75.70;;;;;;5030505;28;20056;-75
2023/12/28 08:58:47;;;;;;;50.53;9.30;;;10.10;75.80;;;;;;5032204;28;20049;-74
2023/12/28 09:01:17;;;;;;;41.33;8.17;;;10.10;75.60;;;;;;5030696;28;20061;-74
2023/12/28 09:03:43;;;;;;;40.93;8.97;;;10.20;75.50;;;;;;5030727;28;20049;-74
2023/12/28 09:06:09;;;;;;;48.30;9.17;;;10.20;75.50;;;;;;5018546;28;20057;-75
2023/12/28 09:08:34;;;;;;;43.83;9.00;;;10.20;75.70;;;;;;5032941;28;20053;-75
2023/12/28 09:11:00;;;;;;;40.27;9.23;;;10.20;75.60;;;;;;5030751;28;20128;-74
2023/12/28 09:13:26;;;;;;;44.77;8.93;;;10.20;75.70;;;;;;5030062;28;20132;-74
2023/12/28 09:15:51;;;;;;;47.40;9.43;;;10.20;75.60;;;;;;5031552;28;20492;-75
2023/12/28 09:18:17;;;;;;;46.10;9.10;;;10.30;75.50;;;;;;5030280;28;20057;-73
2023/12/28 09:20:43;;;;;;;38.93;8.53;;;10.30;75.80;;;;;;5031578;28;20055;-74
2023/12/28 09:23:10;;;;;;;45.23;8.67;;;10.30;75.80;;;;;;5032197;28;20049;-75
2023/12/28 09:25:38;;;;;;;42.60;8.53;;;10.20;75.70;;;;;;5031877;28;20053;-74
2023/12/28 09:28:04;;;;;;;47.37;9.20;;;10.30;75.80;;;;;;5032452;28;20045;-75
2023/12/28 09:30:30;;;;;;;38.80;8.17;;;10.30;75.90;;;;;;5016440;28;20050;-75
2023/12/28 09:32:56;;;;;;;37.77;8.23;;;10.30;75.70;;;;;;5020038;28;20049;-75
2023/12/28 09:35:21;;;;;;;38.23;7.73;;;10.30;75.50;;;;;;5031722;28;20227;-74
2023/12/28 09:37:48;;;;;;;36.10;8.97;;;10.30;75.50;;;;;;5043955;28;20064;-75
2023/12/28 09:40:15;;;;;;;39.37;8.37;;;10.30;75.50;;;;;;5011899;28;20508;-74
2023/12/28 09:42:53;;;;;;;42.27;8.27;;;10.30;75.70;;;;;;5019194;28;20067;-74
2023/12/28 09:45:20;;;;;;;49.50;8.27;;;10.30;75.50;;;;;;5012030;28;20057;-74
2023/12/28 09:47:48;;;;;;;34.13;7.67;;;10.30;75.50;;;;;;5010520;28;20049;-75
2023/12/28 09:50:16;;;;;;;40.60;7.97;;;10.30;75.70;;;;;;5008686;28;20049;-74
2023/12/28 09:52:42;;;;;;;42.17;8.40;;;10.30;75.70;;;;;;5009214;28;20056;-74
2023/12/28 09:55:08;;;;;;;42.93;8.17;;;10.20;75.80;;;;;;5025870;28;20560;-70
2023/12/28 09:57:34;;;;;;;46.07;8.23;;;10.20;75.70;;;;;;5028673;28;20142;-74
2023/12/28 10:00:01;;;;;;;38.37;8.97;;;10.20;75.80;;;;;;5018832;28;20081;-75
2023/12/28 10:02:27;;;;;;;39.97;8.97;;;10.20;75.80;;;;;;5016984;28;20056;-74
2023/12/28 10:04:52;;;;;;;42.30;8.77;;;10.20;75.70;;;;;;5028893;28;20534;-74
2023/12/28 10:07:19;;;;;;;41.10;8.13;;;10.20;75.90;;;;;;5026937;28;20053;-74
2023/12/28 10:09:44;;;;;;;41.73;8.53;;;10.20;75.90;;;;;;5007696;28;20046;-72
2023/12/28 10:12:10;;;;;;;40.53;8.33;;;10.30;75.30;;;;;;5027567;28;20374;-74
2023/12/28 10:14:36;;;;;;;43.07;8.10;;;10.30;75.50;;;;;;5028439;28;20064;-74
2023/12/28 10:17:02;;;;;;;47.50;8.50;;;10.30;75.60;;;;;;5025782;28;20136;-75
2023/12/28 10:19:28;;;;;;;44.47;8.93;;;10.40;75.50;;;;;;5024540;28;20061;-74
2023/12/28 10:21:53;;;;;;;41.03;8.57;;;10.30;75.50;;;;;;5008025;28;20053;-73
2023/12/28 10:24:21;;;;;;;40.57;8.53;;;10.30;75.50;;;;;;5008427;28;20057;-74
2023/12/28 10:26:46;;;;;;;37.20;8.17;;;10.40;75.20;;;;;;5008440;28;20073;-74
2023/12/28 10:29:13;;;;;;;40.57;8.43;;;10.40;75.30;;;;;;5011589;28;20089;-75
2023/12/28 10:31:43;;;;;;;40.70;8.97;;;10.40;75.10;;;;;;5028147;28;20120;-75
2023/12/28 10:34:09;;;;;;;32.60;7.63;;;10.40;75.20;;;;;;5017867;28;20045;-74
2023/12/28 10:36:36;;;;;;;37.13;8.10;;;10.30;75.20;;;;;;5027881;28;20042;-74
2023/12/28 10:39:05;;;;;;;31.37;6.90;;;10.40;75.30;;;;;;5028173;28;20037;-74
2023/12/28 10:41:35;;;;;;;34.57;7.90;;;10.30;75.40;;;;;;5026617;28;20056;-74
2023/12/28 10:44:05;;;;;;;39.67;6.93;;;10.30;75.50;;;;;;5022384;28;20053;-74
2023/12/28 10:46:32;;;;;;;40.53;8.47;;;10.40;75.30;;;;;;5025713;28;20116;-75
2023/12/28 10:49:21;;;;;;;35.93;7.17;;;10.40;75.50;;;;;;5026193;28;20128;-74
2023/12/28 10:51:52;;;;;;;34.30;7.30;;;10.30;75.40;;;;;;5027862;28;20496;-74
2023/12/28 10:54:41;;;;;;;34.80;6.75;;;10.30;75.60;;;;;;5026822;28;20417;-70
2023/12/28 10:57:27;;;;;;;34.60;7.40;;;10.30;75.70;;;;;;5025802;28;20042;-74
2023/12/28 11:00:10;;;;;;;37.93;7.70;;;10.30;75.90;;;;;;5027083;28;20152;-74
2023/12/28 11:02:44;;;;;;;34.53;7.77;;;10.30;75.50;;;;;;5025743;28;20061;-74
2023/12/28 11:05:12;;;;;;;39.50;7.73;;;10.30;75.50;;;;;;5013308;28;20041;-74
2023/12/28 11:07:39;;;;;;;34.23;7.97;;;10.30;75.50;;;;;;5024879;28;20100;-74
2023/12/28 11:10:06;;;;;;;40.13;7.37;;;10.30;75.40;;;;;;5026991;28;20059;-73
2023/12/28 11:12:33;;;;;;;37.40;8.10;;;10.30;75.50;;;;;;5026013;28;20180;-74
2023/12/28 11:14:59;;;;;;;39.67;7.77;;;10.30;75.50;;;;;;5027344;28;20041;-74
2023/12/28 11:17:26;;;;;;;39.93;7.27;;;10.30;75.70;;;;;;5026962;28;20532;-74
2023/12/28 11:19:53;;;;;;;37.53;7.37;;;10.20;75.50;;;;;;5018675;28;20105;-74
2023/12/28 11:22:22;;;;;;;40.40;8.90;;;10.30;75.50;;;;;;5007374;28;20057;-73
2023/12/28 11:24:48;;;;;;;39.40;7.63;;;10.30;75.50;;;;;;5007340;28;20103;-74
2023/12/28 11:27:13;;;;;;;35.53;7.13;;;10.30;75.60;;;;;;5006255;28;20129;-74
2023/12/28 11:29:41;;;;;;;35.87;7.80;;;10.30;75.70;;;;;;5013493;28;20241;-73
2023/12/28 11:32:08;;;;;;;38.57;7.73;;;10.30;75.30;;;;;;5025863;28;20050;-75
2023/12/28 11:34:34;;;;;;;34.40;7.87;;;10.40;75.50;;;;;;5024632;28;20049;-74
2023/12/28 11:37:18;;;;;;;32.63;7.43;;;10.30;75.60;;;;;;5025779;28;20318;-72
2023/12/28 11:39:44;;;;;;;35.07;7.77;;;10.30;75.30;;;;;;5026595;28;20467;-74
2023/12/28 11:42:10;;;;;;;29.80;7.20;;;10.30;75.50;;;;;;5018723;28;20049;-74
2023/12/28 11:44:46;;;;;;;37.57;7.90;;;10.30;75.70;;;;;;5026844;28;20084;-73
2023/12/28 11:47:20;;;;;;;32.30;7.13;;;10.30;75.90;;;;;;5026583;28;20084;-73
2023/12/28 11:49:47;;;;;;;35.83;7.87;;;10.30;75.80;;;;;;5025041;28;20045;-73
2023/12/28 11:52:42;;;;;;;40.30;7.33;;;10.20;75.90;;;;;;5026474;28;20083;-73
2023/12/28 11:55:08;;;;;;;34.77;7.33;;;10.20;76.10;;;;;;5028352;28;20125;-74
2023/12/28 11:57:36;;;;;;;37.53;7.07;;;10.20;76.10;;;;;;5026083;28;20124;-74
2023/12/28 12:00:04;;;;;;;36.50;7.33;;;10.20;76.30;;;;;;5025120;28;20049;-74
2023/12/28 12:02:29;;;;;;;38.57;7.53;;;10.10;76.40;;;;;;5026410;28;20050;-74
2023/12/28 12:04:57;;;;;;;41.43;8.37;;;10.20;76.40;;;;;;5026067;28;20071;-74
2023/12/28 12:07:24;;;;;;;36.63;7.83;;;10.20;76.20;;;;;;5026771;28;20045;-73
2023/12/28 12:09:55;;;;;;;38.17;7.97;;;10.20;76.20;;;;;;5025238;28;20053;-74
2023/12/28 12:12:21;;;;;;;36.33;7.70;;;10.20;75.90;;;;;;5025888;28;20477;-73
2023/12/28 12:14:47;;;;;;;38.97;7.80;;;10.20;76.10;;;;;;5026350;28;20045;-74
2023/12/28 12:17:12;;;;;;;38.73;8.43;;;10.20;76.60;;;;;;5023922;28;20049;-74
2023/12/28 12:19:38;;;;;;;39.23;7.43;;;10.10;77.00;;;;;;5011839;28;20132;-74
2023/12/28 12:22:04;;;;;;;34.80;7.67;;;10.00;77.00;;;;;;5026138;28;20337;-73
2023/12/28 12:24:32;;;;;;;40.57;8.37;;;10.00;77.00;;;;;;5025999;28;20483;-74
2023/12/28 12:26:58;;;;;;;44.40;8.03;;;10.00;76.90;;;;;;5025065;28;20056;-74
2023/12/28 12:29:24;;;;;;;37.57;8.37;;;10.00;76.80;;;;;;5026397;28;20053;-73
2023/12/28 12:31:49;;;;;;;44.00;8.87;;;10.00;76.60;;;;;;5021025;28;20077;-74
2023/12/28 12:34:16;;;;;;;45.63;9.23;;;10.10;76.20;;;;;;4998203;28;20046;-72
2023/12/28 12:36:42;;;;;;;41.07;8.97;;;10.10;76.40;;;;;;4993379;28;20050;-74
2023/12/28 12:39:11;;;;;;;43.30;8.43;;;10.10;76.00;;;;;;5016749;28;20045;-75